createdAt,value
2017-02-15T00:00:23.008Z,26
2017-02-15T00:01:24.939Z,26.1
2017-02-15T00:02:25.008Z,26
2017-02-15T00:03:25.069Z,26.1
2017-02-15T00:04:25.161Z,26
2017-02-15T00:05:25.191Z,26
2017-02-15T00:06:25.258Z,26
2017-02-15T00:07:23.389Z,26
2017-02-15T00:08:23.431Z,26.1
2017-02-15T00:09:23.516Z,26
2017-02-15T00:10:25.490Z,26
2017-02-15T00:11:25.590Z,26
2017-02-15T00:12:23.747Z,26
2017-02-15T00:13:25.741Z,26
2017-02-15T00:14:25.806Z,26
2017-02-15T00:15:23.933Z,26
2017-02-15T00:16:25.838Z,26
2017-02-15T00:17:23.948Z,26
2017-02-15T00:18:25.926Z,26
2017-02-15T00:19:25.940Z,26
2017-02-15T00:20:26.016Z,26
2017-02-15T00:21:24.142Z,26
2017-02-15T00:22:24.203Z,26
2017-02-15T00:23:24.219Z,26
2017-02-15T00:24:24.268Z,26
2017-02-15T00:25:24.297Z,26
2017-02-15T00:26:24.297Z,26
2017-02-15T00:27:26.201Z,26
2017-02-15T00:28:26.297Z,26
2017-02-15T00:29:24.475Z,26
2017-02-15T00:30:24.535Z,26
2017-02-15T00:31:26.474Z,26
2017-02-15T00:32:26.502Z,26
2017-02-15T00:33:24.691Z,26
2017-02-15T00:34:24.759Z,26
2017-02-15T00:35:26.703Z,26
2017-02-15T00:36:24.897Z,26
2017-02-15T00:37:24.952Z,26
2017-02-15T00:38:26.883Z,26
2017-02-15T00:39:26.969Z,26
2017-02-15T00:40:25.155Z,26
2017-02-15T00:41:25.196Z,26
2017-02-15T00:42:27.123Z,26
2017-02-15T00:43:25.250Z,26
2017-02-15T00:44:25.260Z,26
2017-02-15T00:45:27.252Z,26
2017-02-15T00:46:25.946Z,26
2017-02-15T00:47:25.352Z,26
2017-02-15T00:48:25.406Z,26
2017-02-15T00:49:25.521Z,26
2017-02-15T00:50:25.571Z,26
2017-02-15T00:51:25.634Z,26
2017-02-15T00:52:25.649Z,26
2017-02-15T00:53:27.629Z,26
2017-02-15T00:54:27.720Z,26
2017-02-15T00:55:27.809Z,26
2017-02-15T00:56:27.841Z,26
2017-02-15T00:57:25.963Z,26
2017-02-15T00:58:26.015Z,26
2017-02-15T00:59:27.973Z,26
2017-02-15T01:00:28.054Z,26
2017-02-15T01:01:26.191Z,26
2017-02-15T01:02:28.152Z,26
2017-02-15T01:03:26.300Z,26
2017-02-15T01:04:28.207Z,26
2017-02-15T01:05:26.359Z,26
2017-02-15T01:06:26.388Z,26
2017-02-15T01:07:28.338Z,26
2017-02-15T01:08:28.426Z,26
2017-02-15T01:09:26.507Z,26
2017-02-15T01:10:26.525Z,26
2017-02-15T01:11:26.523Z,26
2017-02-15T01:12:26.551Z,26
2017-02-15T01:13:28.485Z,26
2017-02-15T01:14:26.676Z,26
2017-02-15T01:15:26.715Z,26
2017-02-15T01:16:28.649Z,26
2017-02-15T01:17:26.730Z,26
2017-02-15T01:18:28.698Z,26
2017-02-15T01:19:28.673Z,26
2017-02-15T01:20:28.783Z,26
2017-02-15T01:21:26.878Z,26
2017-02-15T01:22:26.902Z,26
2017-02-15T01:23:26.918Z,26
2017-02-15T01:24:28.910Z,26
2017-02-15T01:25:28.969Z,26
2017-02-15T01:26:27.046Z,26
2017-02-15T01:27:29.034Z,26
2017-02-15T01:28:29.130Z,26
2017-02-15T01:29:29.119Z,26
2017-02-15T01:30:29.215Z,26
2017-02-15T01:31:27.460Z,26
2017-02-15T01:32:29.333Z,26
2017-02-15T01:33:29.362Z,26
2017-02-15T01:34:29.379Z,26
2017-02-15T01:35:29.379Z,26
2017-02-15T01:36:28.174Z,26
2017-02-15T01:37:29.528Z,26
2017-02-15T01:38:29.505Z,26
2017-02-15T01:39:29.556Z,26
2017-02-15T01:40:27.743Z,26
2017-02-15T01:41:27.778Z,26
2017-02-15T01:42:27.849Z,26
2017-02-15T01:43:28.085Z,26
2017-02-15T01:44:29.908Z,26
2017-02-15T01:45:31.281Z,26
2017-02-15T01:46:28.188Z,26
2017-02-15T01:47:30.126Z,26
2017-02-15T01:48:30.135Z,26
2017-02-15T01:49:28.506Z,26
2017-02-15T01:50:30.240Z,26
2017-02-15T01:51:30.324Z,26
2017-02-15T01:52:28.470Z,26
2017-02-15T01:53:30.422Z,26
2017-02-15T01:54:28.548Z,26
2017-02-15T01:55:30.652Z,26
2017-02-15T01:56:30.523Z,26
2017-02-15T01:57:28.733Z,26
2017-02-15T01:58:30.647Z,26
2017-02-15T01:59:28.834Z,26
2017-02-15T02:00:30.815Z,26
2017-02-15T02:01:28.919Z,26
2017-02-15T02:02:28.933Z,26
2017-02-15T02:03:28.999Z,25.9
2017-02-15T02:04:30.939Z,25.9
2017-02-15T02:05:29.120Z,25.9
2017-02-15T02:06:29.194Z,25.9
2017-02-15T02:07:31.111Z,25.9
2017-02-15T02:08:29.261Z,25.9
2017-02-15T02:09:31.236Z,26
2017-02-15T02:10:29.440Z,25.9
2017-02-15T02:11:29.483Z,25.9
2017-02-15T02:12:31.439Z,25.9
2017-02-15T02:13:29.620Z,25.9
2017-02-15T02:14:29.695Z,25.9
2017-02-15T02:15:29.738Z,25.9
2017-02-15T02:16:31.639Z,25.9
2017-02-15T02:17:31.672Z,25.9
2017-02-15T02:18:31.784Z,25.9
2017-02-15T02:19:31.835Z,25.9
2017-02-15T02:20:30.001Z,25.9
2017-02-15T02:21:30.077Z,25.9
2017-02-15T02:22:30.191Z,25.9
2017-02-15T02:23:30.265Z,25.9
2017-02-15T02:24:32.240Z,25.9
2017-02-15T02:25:32.279Z,25.9
2017-02-15T02:26:30.450Z,25.9
2017-02-15T02:27:31.088Z,25.9
2017-02-15T02:28:32.431Z,25.9
2017-02-15T02:29:30.647Z,25.9
2017-02-15T02:30:32.591Z,25.9
2017-02-15T02:31:30.669Z,25.9
2017-02-15T02:32:32.652Z,25.9
2017-02-15T02:33:32.674Z,25.9
2017-02-15T02:34:32.767Z,25.9
2017-02-15T02:35:32.841Z,25.9
2017-02-15T02:36:31.035Z,25.9
2017-02-15T02:37:31.105Z,25.9
2017-02-15T02:38:31.151Z,25.9
2017-02-15T02:39:31.175Z,25.9
2017-02-15T02:40:33.190Z,25.9
2017-02-15T02:41:31.332Z,25.9
2017-02-15T02:42:33.208Z,25.9
2017-02-15T02:43:31.354Z,25.9
2017-02-15T02:44:31.521Z,25.9
2017-02-15T02:45:31.609Z,25.9
2017-02-15T02:46:33.666Z,25.9
2017-02-15T02:47:31.786Z,25.9
2017-02-15T02:48:31.838Z,25.9
2017-02-15T02:49:33.835Z,25.9
2017-02-15T02:50:31.907Z,25.9
2017-02-15T02:51:33.899Z,25.9
2017-02-15T02:52:33.965Z,25.9
2017-02-15T02:53:33.911Z,25.9
2017-02-15T02:54:34.053Z,25.9
2017-02-15T02:55:34.064Z,25.9
2017-02-15T02:56:34.052Z,25.9
2017-02-15T02:57:34.104Z,25.9
2017-02-15T02:58:32.203Z,25.9
2017-02-15T02:59:34.156Z,25.9
2017-02-15T03:00:32.298Z,25.9
2017-02-15T03:01:32.317Z,25.9
2017-02-15T03:02:32.392Z,25.9
2017-02-15T03:03:32.450Z,25.9
2017-02-15T03:04:32.550Z,25.9
2017-02-15T03:05:34.548Z,25.9
2017-02-15T03:06:32.705Z,25.9
2017-02-15T03:07:34.656Z,25.9
2017-02-15T03:08:32.793Z,25.9
2017-02-15T03:09:34.858Z,25.9
2017-02-15T03:10:32.999Z,25.9
2017-02-15T03:11:34.922Z,25.9
2017-02-15T03:12:33.081Z,25.9
2017-02-15T03:13:33.038Z,25.9
2017-02-15T03:14:33.104Z,25.9
2017-02-15T03:15:33.225Z,25.9
2017-02-15T03:16:33.295Z,25.9
2017-02-15T03:17:35.227Z,25.9
2017-02-15T03:18:33.463Z,25.9
2017-02-15T03:19:35.336Z,25.9
2017-02-15T03:20:33.447Z,25.9
2017-02-15T03:21:35.408Z,25.9
2017-02-15T03:22:35.444Z,25.9
2017-02-15T03:23:35.457Z,25.9
2017-02-15T03:24:33.625Z,25.9
2017-02-15T03:25:35.594Z,25.9
2017-02-15T03:26:35.666Z,25.9
2017-02-15T03:27:35.805Z,25.9
2017-02-15T03:28:33.916Z,25.9
2017-02-15T03:29:35.793Z,25.9
2017-02-15T03:30:35.853Z,25.9
2017-02-15T03:31:35.945Z,25.9
2017-02-15T03:32:34.026Z,25.9
2017-02-15T03:33:34.068Z,25.9
2017-02-15T03:34:34.096Z,25.9
2017-02-15T03:35:34.192Z,25.9
2017-02-15T03:36:36.117Z,25.9
2017-02-15T03:37:36.162Z,25.9
2017-02-15T03:38:34.329Z,25.9
2017-02-15T03:39:36.863Z,25.9
2017-02-15T03:40:34.508Z,25.9
2017-02-15T03:41:36.476Z,25.9
2017-02-15T03:42:34.609Z,25.9
2017-02-15T03:43:36.572Z,25.9
2017-02-15T03:44:36.635Z,25.9
2017-02-15T03:45:35.431Z,25.9
2017-02-15T03:46:36.694Z,25.9
2017-02-15T03:47:36.725Z,25.9
2017-02-15T03:48:34.847Z,25.9
2017-02-15T03:49:36.815Z,25.8
2017-02-15T03:50:36.809Z,25.9
2017-02-15T03:51:36.867Z,25.9
2017-02-15T03:52:36.907Z,25.9
2017-02-15T03:53:36.886Z,25.8
2017-02-15T03:54:36.909Z,25.8
2017-02-15T03:55:35.036Z,25.8
2017-02-15T03:56:35.123Z,25.8
2017-02-15T03:57:37.032Z,25.8
2017-02-15T03:58:35.201Z,25.8
2017-02-15T03:59:37.093Z,25.9
2017-02-15T04:00:35.281Z,25.8
2017-02-15T04:01:37.227Z,25.8
2017-02-15T04:02:37.322Z,25.8
2017-02-15T04:03:37.379Z,25.8
2017-02-15T04:04:37.438Z,25.8
2017-02-15T04:05:35.601Z,25.8
2017-02-15T04:06:35.622Z,25.8
2017-02-15T04:07:37.629Z,25.9
2017-02-15T04:08:35.806Z,25.8
2017-02-15T04:09:36.351Z,25.8
2017-02-15T04:10:37.864Z,25.8
2017-02-15T04:11:37.823Z,25.8
2017-02-15T04:12:37.750Z,25.8
2017-02-15T04:13:37.774Z,25.8
2017-02-15T04:14:35.986Z,25.8
2017-02-15T04:15:36.033Z,25.8
2017-02-15T04:16:36.097Z,25.8
2017-02-15T04:17:36.185Z,25.8
2017-02-15T04:18:38.041Z,25.8
2017-02-15T04:19:38.073Z,25.8
2017-02-15T04:20:38.130Z,25.8
2017-02-15T04:21:38.207Z,25.8
2017-02-15T04:22:36.353Z,25.8
2017-02-15T04:23:38.398Z,25.8
2017-02-15T04:24:38.501Z,25.8
2017-02-15T04:25:36.671Z,25.8
2017-02-15T04:26:36.722Z,25.8
2017-02-15T04:27:38.640Z,25.8
2017-02-15T04:28:36.807Z,25.8
2017-02-15T04:29:38.774Z,25.8
2017-02-15T04:30:38.776Z,25.8
2017-02-15T04:31:38.762Z,25.8
2017-02-15T04:32:38.866Z,25.8
2017-02-15T04:33:37.029Z,25.8
2017-02-15T04:34:37.215Z,25.8
2017-02-15T04:35:39.200Z,25.8
2017-02-15T04:36:37.267Z,25.8
2017-02-15T04:37:37.320Z,25.8
2017-02-15T04:38:39.286Z,25.8
2017-02-15T04:39:39.360Z,25.8
2017-02-15T04:40:37.428Z,25.8
2017-02-15T04:41:39.395Z,25.8
2017-02-15T04:42:37.553Z,25.9
2017-02-15T04:43:37.620Z,26.2
2017-02-15T04:44:39.519Z,26.4
2017-02-15T04:45:37.712Z,26.4
2017-02-15T04:46:37.748Z,26.6
2017-02-15T04:47:39.656Z,26.8
2017-02-15T04:48:37.850Z,27.1
2017-02-15T04:49:40.643Z,27.3
2017-02-15T04:50:37.863Z,27.5
2017-02-15T04:51:39.825Z,27.7
2017-02-15T04:52:39.830Z,28
2017-02-15T04:53:39.864Z,28.1
2017-02-15T04:54:38.001Z,28.3
2017-02-15T04:55:38.227Z,28.4
2017-02-15T04:56:38.133Z,28.5
2017-02-15T04:57:38.207Z,28.6
2017-02-15T04:58:38.288Z,28.7
2017-02-15T04:59:38.340Z,28.7
2017-02-15T05:00:38.334Z,28.8
2017-02-15T05:01:38.713Z,28.8
2017-02-15T05:02:38.421Z,28.8
2017-02-15T05:03:38.502Z,28.8
2017-02-15T05:04:40.454Z,28.8
2017-02-15T05:05:38.638Z,28.8
2017-02-15T05:06:40.510Z,28.8
2017-02-15T05:07:38.863Z,28.8
2017-02-15T05:08:40.620Z,28.8
2017-02-15T05:09:38.757Z,28.8
2017-02-15T05:10:38.828Z,28.8
2017-02-15T05:11:38.950Z,28.8
2017-02-15T05:12:39.106Z,28.8
2017-02-15T05:13:40.922Z,28.8
2017-02-15T05:14:40.939Z,28.8
2017-02-15T05:15:40.969Z,28.7
2017-02-15T05:16:39.106Z,28.7
2017-02-15T05:17:41.103Z,28.7
2017-02-15T05:18:39.410Z,28.7
2017-02-15T05:19:41.184Z,28.7
2017-02-15T05:20:41.225Z,28.7
2017-02-15T05:21:39.344Z,28.7
2017-02-15T05:22:39.384Z,28.7
2017-02-15T05:23:41.329Z,28.7
2017-02-15T05:24:39.748Z,28.6
2017-02-15T05:25:41.443Z,28.6
2017-02-15T05:26:41.436Z,28.6
2017-02-15T05:27:41.466Z,28.6
2017-02-15T05:28:41.453Z,28.6
2017-02-15T05:29:39.707Z,28.6
2017-02-15T05:30:41.807Z,28.6
2017-02-15T05:31:39.751Z,28.6
2017-02-15T05:32:39.824Z,28.5
2017-02-15T05:33:41.772Z,28.5
2017-02-15T05:34:39.859Z,28.5
2017-02-15T05:35:39.959Z,28.5
2017-02-15T05:36:40.225Z,28.5
2017-02-15T05:37:39.977Z,28.5
2017-02-15T05:38:40.061Z,28.5
2017-02-15T05:39:40.066Z,28.4
2017-02-15T05:40:42.063Z,28.4
2017-02-15T05:41:42.140Z,28.4
2017-02-15T05:42:40.575Z,28.4
2017-02-15T05:43:40.354Z,28.4
2017-02-15T05:44:42.273Z,28.3
2017-02-15T05:45:42.935Z,28.3
2017-02-15T05:46:42.409Z,28.3
2017-02-15T05:47:40.567Z,28.3
2017-02-15T05:48:42.860Z,28.3
2017-02-15T05:49:40.762Z,28.3
2017-02-15T05:50:42.644Z,28.3
2017-02-15T05:51:42.738Z,28.2
2017-02-15T05:52:42.690Z,28.2
2017-02-15T05:53:42.679Z,28.2
2017-02-15T05:54:41.080Z,28.2
2017-02-15T05:55:41.023Z,28.2
2017-02-15T05:56:41.028Z,28.2
2017-02-15T05:57:42.917Z,28.2
2017-02-15T05:58:41.109Z,28.1
2017-02-15T05:59:41.132Z,28.1
2017-02-15T06:00:41.446Z,28.1
2017-02-15T06:01:43.058Z,28.1
2017-02-15T06:02:41.294Z,28.1
2017-02-15T06:03:43.195Z,28.1
2017-02-15T06:04:41.365Z,28.1
2017-02-15T06:05:43.294Z,28
2017-02-15T06:06:41.736Z,28
2017-02-15T06:07:43.450Z,28
2017-02-15T06:08:43.493Z,28
2017-02-15T06:09:43.585Z,28
2017-02-15T06:10:41.794Z,28
2017-02-15T06:11:43.686Z,28
2017-02-15T06:12:43.840Z,28
2017-02-15T06:13:41.898Z,27.9
2017-02-15T06:14:43.925Z,27.9
2017-02-15T06:15:42.028Z,27.9
2017-02-15T06:16:43.871Z,27.9
2017-02-15T06:17:43.991Z,27.9
2017-02-15T06:18:44.853Z,27.9
2017-02-15T06:19:44.027Z,27.9
2017-02-15T06:20:42.206Z,27.9
2017-02-15T06:21:42.210Z,27.9
2017-02-15T06:22:42.248Z,27.8
2017-02-15T06:23:44.160Z,27.8
2017-02-15T06:24:42.504Z,27.8
2017-02-15T06:25:42.334Z,27.8
2017-02-15T06:26:42.382Z,27.8
2017-02-15T06:27:42.482Z,27.8
2017-02-15T06:28:44.334Z,27.8
2017-02-15T06:29:42.551Z,27.8
2017-02-15T06:30:42.880Z,27.8
2017-02-15T06:31:44.488Z,27.7
2017-02-15T06:32:44.538Z,27.7
2017-02-15T06:33:44.608Z,27.7
2017-02-15T06:34:42.885Z,27.7
2017-02-15T06:35:44.719Z,27.7
2017-02-15T06:36:44.920Z,27.7
2017-02-15T06:37:42.957Z,27.7
2017-02-15T06:38:42.964Z,27.7
2017-02-15T06:39:44.818Z,27.7
2017-02-15T06:40:42.993Z,27.6
2017-02-15T06:41:43.002Z,27.7
2017-02-15T06:42:45.075Z,27.6
2017-02-15T06:43:45.052Z,27.6
2017-02-15T06:44:45.105Z,27.6
2017-02-15T06:45:43.341Z,27.6
2017-02-15T06:46:44.115Z,27.6
2017-02-15T06:47:45.313Z,27.6
2017-02-15T06:48:45.469Z,27.6
2017-02-15T06:49:43.571Z,27.6
2017-02-15T06:50:43.621Z,27.6
2017-02-15T06:51:43.598Z,27.6
2017-02-15T06:52:43.635Z,27.5
2017-02-15T06:53:43.727Z,27.5
2017-02-15T06:54:43.938Z,27.5
2017-02-15T06:55:45.770Z,27.5
2017-02-15T06:56:43.964Z,27.5
2017-02-15T06:57:44.030Z,27.5
2017-02-15T06:58:45.890Z,27.5
2017-02-15T06:59:44.123Z,27.5
2017-02-15T07:00:46.268Z,27.5
2017-02-15T07:01:46.156Z,27.4
2017-02-15T07:02:46.184Z,27.4
2017-02-15T07:03:46.248Z,27.4
2017-02-15T07:04:44.417Z,27.4
2017-02-15T07:05:46.324Z,27.4
2017-02-15T07:06:44.687Z,27.4
2017-02-15T07:07:46.415Z,27.4
2017-02-15T07:08:44.622Z,27.4
2017-02-15T07:09:44.683Z,27.4
2017-02-15T07:10:46.563Z,27.4
2017-02-15T07:11:46.593Z,27.3
2017-02-15T07:12:45.018Z,27.3
2017-02-15T07:13:44.829Z,27.3
2017-02-15T07:14:44.980Z,27.3
2017-02-15T07:15:46.812Z,27.3
2017-02-15T07:16:46.821Z,27.3
2017-02-15T07:17:46.899Z,27.3
2017-02-15T07:18:45.369Z,27.3
2017-02-15T07:19:45.184Z,27.3
2017-02-15T07:20:47.089Z,27.2
2017-02-15T07:21:47.114Z,27.2
2017-02-15T07:22:47.179Z,27.2
2017-02-15T07:23:47.222Z,27.2
2017-02-15T07:24:47.496Z,27.2
2017-02-15T07:25:47.468Z,27.2
2017-02-15T07:26:47.377Z,26.4
2017-02-15T07:27:45.616Z,23.8
2017-02-15T07:28:45.620Z,23.6
2017-02-15T07:29:45.612Z,23
2017-02-15T07:30:48.312Z,23.4
2017-02-15T07:31:48.737Z,23.4
2017-02-15T07:32:45.646Z,23.7
2017-02-15T07:33:47.522Z,23.7
2017-02-15T07:34:45.694Z,24
2017-02-15T07:35:47.527Z,24
2017-02-15T07:36:48.367Z,24.2
2017-02-15T07:37:45.845Z,24.5
2017-02-15T07:38:47.681Z,24.9
2017-02-15T07:39:45.873Z,25.2
2017-02-15T07:40:47.765Z,25.5
2017-02-15T07:41:45.908Z,25.6
2017-02-15T07:42:46.167Z,25.7
2017-02-15T07:43:47.828Z,25.9
2017-02-15T07:44:47.849Z,26.3
2017-02-15T07:45:47.945Z,26.7
2017-02-15T07:46:48.458Z,27.1
2017-02-15T07:47:48.100Z,27.3
2017-02-15T07:48:48.400Z,27.4
2017-02-15T07:49:46.366Z,27.4
2017-02-15T07:50:46.487Z,27.3
2017-02-15T07:51:46.456Z,27.3
2017-02-15T07:52:48.398Z,27.2
2017-02-15T07:53:48.465Z,27.1
2017-02-15T07:54:46.839Z,27
2017-02-15T07:55:46.632Z,26.9
2017-02-15T07:56:48.554Z,26.8
2017-02-15T07:57:48.580Z,26.7
2017-02-15T07:58:48.616Z,26.6
2017-02-15T07:59:48.668Z,26.5
2017-02-15T08:00:47.067Z,26.4
2017-02-15T08:01:48.814Z,26.2
2017-02-15T08:02:47.055Z,26.1
2017-02-15T08:03:47.093Z,26
2017-02-15T08:04:49.071Z,25.9
2017-02-15T08:05:49.723Z,25.8
2017-02-15T08:06:47.474Z,25.7
2017-02-15T08:07:49.216Z,25.6
2017-02-15T08:08:50.563Z,25.5
2017-02-15T08:09:49.398Z,25.4
2017-02-15T08:10:49.402Z,25.3
2017-02-15T08:11:52.215Z,25.3
2017-02-15T08:12:51.508Z,25.2
2017-02-15T08:13:50.161Z,25.2
2017-02-15T08:14:49.546Z,25.2
2017-02-15T08:15:49.616Z,25.3
2017-02-15T08:16:49.700Z,25.3
2017-02-15T08:17:47.818Z,25.2
2017-02-15T08:18:48.009Z,25.2
2017-02-15T08:19:50.376Z,25.2
2017-02-15T08:20:49.875Z,25.2
2017-02-15T08:21:48.064Z,25.1
2017-02-15T08:22:49.991Z,25.1
2017-02-15T08:23:48.151Z,25
2017-02-15T08:24:50.236Z,25
2017-02-15T08:25:48.188Z,24.9
2017-02-15T08:26:48.230Z,24.9
2017-02-15T08:27:50.112Z,24.9
2017-02-15T08:28:50.888Z,24.9
2017-02-15T08:29:50.364Z,24.9
2017-02-15T08:30:49.182Z,24.8
2017-02-15T08:31:50.421Z,24.8
2017-02-15T08:32:48.581Z,24.8
2017-02-15T08:33:50.486Z,24.7
2017-02-15T08:34:50.557Z,24.7
2017-02-15T08:35:48.700Z,24.7
2017-02-15T08:36:48.950Z,24.6
2017-02-15T08:37:48.857Z,24.6
2017-02-15T08:38:50.890Z,24.6
2017-02-15T08:39:48.962Z,24.6
2017-02-15T08:40:50.954Z,24.6
2017-02-15T08:41:50.230Z,24.5
2017-02-15T08:42:51.758Z,24.5
2017-02-15T08:43:51.143Z,24.5
2017-02-15T08:44:51.113Z,24.5
2017-02-15T08:45:49.250Z,24.5
2017-02-15T08:46:51.215Z,24.4
2017-02-15T08:47:51.204Z,24.4
2017-02-15T08:48:51.476Z,24.4
2017-02-15T08:49:51.368Z,24.4
2017-02-15T08:50:49.465Z,24.4
2017-02-15T08:52:52.694Z,24.4
2017-02-15T08:53:50.994Z,24.4
2017-02-15T08:54:52.772Z,24.4
2017-02-15T08:55:50.944Z,24.4
2017-02-15T08:56:52.960Z,24.4
2017-02-15T08:57:52.967Z,24.5
2017-02-15T08:58:51.159Z,24.5
2017-02-15T08:59:53.315Z,24.5
2017-02-15T09:00:51.249Z,24.4
2017-02-15T09:01:51.300Z,24.5
2017-02-15T09:02:51.351Z,24.5
2017-02-15T09:03:53.255Z,24.5
2017-02-15T09:04:51.439Z,24.4
2017-02-15T09:05:51.676Z,24.5
2017-02-15T09:06:53.380Z,24.5
2017-02-15T09:07:53.405Z,24.5
2017-02-15T09:08:53.500Z,24.5
2017-02-15T09:09:52.093Z,24.5
2017-02-15T09:10:51.695Z,24.5
2017-02-15T09:11:53.815Z,24.4
2017-02-15T09:12:53.701Z,24.4
2017-02-15T09:13:53.869Z,24.4
2017-02-15T09:14:53.865Z,24.4
2017-02-15T09:15:52.001Z,24.4
2017-02-15T09:16:51.996Z,24.3
2017-02-15T09:17:52.288Z,24.3
2017-02-15T09:18:52.158Z,24.3
2017-02-15T09:19:54.101Z,24.3
2017-02-15T09:20:52.150Z,24.2
2017-02-15T09:21:52.238Z,24.2
2017-02-15T09:22:54.236Z,24.2
2017-02-15T09:23:52.502Z,24.1
2017-02-15T09:24:54.257Z,24.1
2017-02-15T09:25:52.429Z,24.1
2017-02-15T09:26:52.485Z,24.1
2017-02-15T09:27:52.523Z,24.1
2017-02-15T09:28:53.263Z,24.1
2017-02-15T09:29:54.710Z,24
2017-02-15T09:30:54.564Z,24
2017-02-15T09:31:54.638Z,24
2017-02-15T09:32:52.836Z,24
2017-02-15T09:33:54.738Z,23.9
2017-02-15T09:34:53.061Z,23.9
2017-02-15T09:35:56.741Z,23.9
2017-02-15T09:36:53.587Z,23.8
2017-02-15T09:37:54.917Z,23.8
2017-02-15T09:38:53.654Z,23.8
2017-02-15T09:39:53.152Z,23.7
2017-02-15T09:40:55.324Z,23.7
2017-02-15T09:41:55.222Z,23.7
2017-02-15T09:42:53.370Z,23.6
2017-02-15T09:43:55.214Z,23.6
2017-02-15T09:44:56.001Z,23.6
2017-02-15T09:45:55.466Z,23.6
2017-02-15T09:46:53.800Z,23.6
2017-02-15T09:47:53.597Z,23.6
2017-02-15T09:48:55.584Z,23.5
2017-02-15T09:49:53.721Z,23.5
2017-02-15T09:50:53.762Z,23.5
2017-02-15T09:51:55.755Z,23.5
2017-02-15T09:52:55.784Z,23.5
2017-02-15T09:53:53.886Z,23.4
2017-02-15T09:54:55.788Z,23.4
2017-02-15T09:55:57.095Z,23.4
2017-02-15T09:56:55.871Z,23.4
2017-02-15T09:57:56.035Z,23.4
2017-02-15T09:58:54.143Z,23.4
2017-02-15T09:59:54.217Z,23.4
2017-02-15T10:00:54.281Z,23.5
2017-02-15T10:01:56.268Z,23.4
2017-02-15T10:02:54.354Z,23.4
2017-02-15T10:03:56.256Z,23.4
2017-02-15T10:04:54.421Z,23.4
2017-02-15T10:05:56.302Z,23.4
2017-02-15T10:06:56.403Z,23.5
2017-02-15T10:07:56.528Z,23.5
2017-02-15T10:08:56.513Z,23.5
2017-02-15T10:09:54.604Z,23.4
2017-02-15T10:10:56.493Z,23.4
2017-02-15T10:11:56.588Z,23.4
2017-02-15T10:12:56.652Z,23.4
2017-02-15T10:13:54.807Z,23.4
2017-02-15T10:14:56.836Z,23.4
2017-02-15T10:15:56.850Z,23.4
2017-02-15T10:16:55.038Z,23.4
2017-02-15T10:17:55.033Z,23.4
2017-02-15T10:18:56.944Z,23.4
2017-02-15T10:19:55.105Z,23.3
2017-02-15T10:20:57.069Z,23.3
2017-02-15T10:21:55.289Z,23.3
2017-02-15T10:22:57.843Z,23.3
2017-02-15T10:23:57.227Z,23.3
2017-02-15T10:24:57.304Z,23.3
2017-02-15T10:25:55.487Z,23.3
2017-02-15T10:26:55.517Z,23.3
2017-02-15T10:27:55.608Z,23.2
2017-02-15T10:28:55.622Z,23.3
2017-02-15T10:29:57.633Z,23.2
2017-02-15T10:30:55.813Z,23.2
2017-02-15T10:31:55.876Z,23.2
2017-02-15T10:32:55.959Z,23.2
2017-02-15T10:33:57.927Z,23.2
2017-02-15T10:34:56.025Z,23.2
2017-02-15T10:35:56.039Z,23.2
2017-02-15T10:36:56.869Z,23.1
2017-02-15T10:37:56.150Z,23.2
2017-02-15T10:38:56.152Z,23.2
2017-02-15T10:39:58.090Z,23.1
2017-02-15T10:40:57.121Z,23.1
2017-02-15T10:41:58.289Z,23.2
2017-02-15T10:42:56.427Z,23.1
2017-02-15T10:43:56.434Z,23.1
2017-02-15T10:44:58.326Z,23.1
2017-02-15T10:45:57.144Z,23.1
2017-02-15T10:46:57.291Z,23
2017-02-15T10:47:56.631Z,23
2017-02-15T10:48:56.614Z,22.9
2017-02-15T10:49:59.231Z,22.9
2017-02-15T10:50:56.765Z,22.9
2017-02-15T10:51:56.709Z,22.8
2017-02-15T10:52:58.607Z,22.8
2017-02-15T10:53:58.714Z,22.8
2017-02-15T10:54:59.036Z,22.8
2017-02-15T10:55:56.870Z,22.7
2017-02-15T10:56:56.947Z,22.7
2017-02-15T10:57:57.040Z,22.6
2017-02-15T10:58:58.999Z,22.5
2017-02-15T10:59:57.700Z,22.5
2017-02-15T11:00:57.178Z,22.4
2017-02-15T11:01:57.286Z,22.4
2017-02-15T11:02:57.973Z,22.3
2017-02-15T11:03:57.340Z,22.2
2017-02-15T11:04:57.380Z,22.2
2017-02-15T11:06:00.042Z,22.2
2017-02-15T11:06:59.398Z,22.2
2017-02-15T11:07:59.370Z,22.1
2017-02-15T11:08:59.478Z,22.1
2017-02-15T11:09:59.535Z,22.1
2017-02-15T11:11:00.184Z,22
2017-02-15T11:11:59.680Z,22
2017-02-15T11:12:57.760Z,21.9
2017-02-15T11:13:57.847Z,21.9
2017-02-15T11:14:58.697Z,21.8
2017-02-15T11:15:57.966Z,21.8
2017-02-15T11:17:01.541Z,21.8
2017-02-15T11:17:58.124Z,21.7
2017-02-15T11:18:58.077Z,21.7
2017-02-15T11:20:00.026Z,21.7
2017-02-15T11:21:00.163Z,21.6
2017-02-15T11:21:58.255Z,21.6
2017-02-15T11:23:00.719Z,21.6
2017-02-15T11:23:58.199Z,21.5
2017-02-15T11:25:00.229Z,21.5
2017-02-15T11:26:00.210Z,21.4
2017-02-15T11:27:00.248Z,21.4
2017-02-15T11:28:00.370Z,21.3
2017-02-15T11:29:01.734Z,21.2
2017-02-15T11:30:00.472Z,21.1
2017-02-15T11:30:59.315Z,21
2017-02-15T11:31:58.773Z,20.9
2017-02-15T11:33:00.664Z,20.8
2017-02-15T11:34:00.805Z,20.7
2017-02-15T11:34:58.851Z,20.6
2017-02-15T11:36:00.781Z,20.5
2017-02-15T11:37:01.547Z,20.4
2017-02-15T11:37:59.025Z,20.3
2017-02-15T11:39:00.935Z,20.2
2017-02-15T11:40:00.956Z,20.2
2017-02-15T11:41:01.004Z,20.1
2017-02-15T11:42:01.070Z,20.1
2017-02-15T11:43:00.207Z,20
2017-02-15T11:43:59.237Z,20
2017-02-15T11:45:01.264Z,19.9
2017-02-15T11:46:01.246Z,19.9
2017-02-15T11:46:59.317Z,19.8
2017-02-15T11:47:59.315Z,19.8
2017-02-15T11:49:01.261Z,19.8
2017-02-15T11:49:59.416Z,19.7
2017-02-15T11:51:01.293Z,19.7
2017-02-15T11:51:59.454Z,19.6
2017-02-15T11:52:59.493Z,19.6
2017-02-15T11:53:59.556Z,19.6
2017-02-15T11:55:01.505Z,19.6
2017-02-15T11:56:01.546Z,19.6
2017-02-15T11:57:01.650Z,19.6
2017-02-15T11:57:59.775Z,19.6
2017-02-15T11:59:01.689Z,19.7
2017-02-15T11:59:59.846Z,19.7
2017-02-15T12:00:59.869Z,19.8
2017-02-15T12:01:59.864Z,19.8
2017-02-15T12:03:01.797Z,19.9
2017-02-15T12:04:00.586Z,20
2017-02-15T12:04:59.959Z,19.9
2017-02-15T12:06:01.867Z,19.9
2017-02-15T12:07:02.522Z,19.9
2017-02-15T12:08:00.080Z,19.8
2017-02-15T12:09:02.094Z,19.8
2017-02-15T12:10:00.296Z,19.9
2017-02-15T12:11:00.331Z,19.8
2017-02-15T12:12:00.288Z,19.9
2017-02-15T12:13:00.389Z,19.9
2017-02-15T12:14:02.383Z,19.9
2017-02-15T12:15:00.537Z,20
2017-02-15T12:16:00.627Z,19.9
2017-02-15T12:17:02.549Z,19.9
2017-02-15T12:18:00.658Z,19.8
2017-02-15T12:19:02.614Z,19.9
2017-02-15T12:20:00.742Z,19.9
2017-02-15T12:21:01.467Z,19.9
2017-02-15T12:22:00.951Z,20
2017-02-15T12:23:00.964Z,20
2017-02-15T12:24:00.986Z,19.9
2017-02-15T12:25:05.087Z,19.8
2017-02-15T12:26:01.137Z,19.8
2017-02-15T12:27:01.154Z,19.7
2017-02-15T12:28:03.616Z,19.5
2017-02-15T12:29:03.062Z,19.4
2017-02-15T12:30:01.202Z,19.4
2017-02-15T12:31:01.330Z,19.4
2017-02-15T12:32:03.250Z,19.3
2017-02-15T12:33:01.359Z,19.3
2017-02-15T12:34:02.066Z,19.3
2017-02-15T12:35:03.307Z,19.2
2017-02-15T12:36:03.310Z,19.2
2017-02-15T12:37:04.391Z,19.1
2017-02-15T12:38:03.993Z,19
2017-02-15T12:39:01.570Z,18.9
2017-02-15T12:40:01.718Z,18.9
2017-02-15T12:41:02.454Z,18.9
2017-02-15T12:42:03.609Z,18.8
2017-02-15T12:43:02.699Z,18.8
2017-02-15T12:44:03.648Z,18.8
2017-02-15T12:45:02.466Z,18.8
2017-02-15T12:46:01.901Z,18.7
2017-02-15T12:47:03.835Z,18.7
2017-02-15T12:48:02.053Z,18.7
2017-02-15T12:49:02.120Z,18.7
2017-02-15T12:50:05.454Z,18.7
2017-02-15T12:51:02.266Z,18.6
2017-02-15T12:52:02.824Z,18.6
2017-02-15T12:53:02.333Z,18.5
2017-02-15T12:54:03.138Z,18.5
2017-02-15T12:55:02.496Z,18.4
2017-02-15T12:56:02.604Z,18.4
2017-02-15T12:57:02.634Z,18.3
2017-02-15T12:58:04.601Z,18.3
2017-02-15T12:59:04.688Z,18.3
2017-02-15T13:00:02.807Z,18.2
2017-02-15T13:01:05.388Z,18.1
2017-02-15T13:02:03.113Z,18.1
2017-02-15T13:03:04.884Z,18
2017-02-15T13:04:03.066Z,18
2017-02-15T13:05:05.012Z,18
2017-02-15T13:06:05.118Z,17.9
2017-02-15T13:07:05.115Z,17.9
2017-02-15T13:08:05.421Z,17.9
2017-02-15T13:09:03.892Z,17.9
2017-02-15T13:10:05.330Z,17.8
2017-02-15T13:11:03.568Z,17.7
2017-02-15T13:12:05.421Z,17.7
2017-02-15T13:13:03.542Z,17.7
2017-02-15T13:14:05.708Z,17.6
2017-02-15T13:15:03.632Z,17.5
2017-02-15T13:16:03.687Z,17.5
2017-02-15T13:17:05.669Z,17.4
2017-02-15T13:18:05.678Z,17.4
2017-02-15T13:19:05.950Z,17.3
2017-02-15T13:20:05.795Z,17.3
2017-02-15T13:21:06.554Z,17.3
2017-02-15T13:22:05.931Z,17.3
2017-02-15T13:23:05.995Z,17.3
2017-02-15T13:24:04.200Z,17.3
2017-02-15T13:25:05.172Z,17.3
2017-02-15T13:26:06.253Z,17.2
2017-02-15T13:27:04.370Z,17.3
2017-02-15T13:28:04.894Z,17.3
2017-02-15T13:29:04.428Z,17.3
2017-02-15T13:30:04.417Z,17.3